Terminal Aerodrome Forecast
Issued by NWS

Home | Current Version | Previous Version | Text Only | Print | Product List | Glossary On
Versions: 1 2 3 4 5 6 7 8 9 10 11 12 13 14 15 16 17 18 19 20
000
FTUS43 KBIS 290500 AAA
TAFMOT
TAF AMD
KMOT 290553Z 2906/3006 VRB05KT P6SM SCT110 BKN150
     FM290800 30005KT P6SM VCSH BKN025 OVC090
      TEMPO 2908/2912 32011KT 4SM -SN BKN035 OVC060
     FM291200 31014KT 5SM -SN BR OVC035
     FM291500 31018G24KT P6SM OVC025
     FM291800 31017G25KT P6SM SCT020 BKN060 BKN100=

USA.gov is the U.S. government's official web portal to all federal, state and local government web resources and services.